createdAt,value
2018-03-03T00:01:19.721Z,-0.94
2018-03-03T00:03:47.359Z,-0.84
2018-03-03T00:06:14.851Z,-0.89
2018-03-03T00:08:42.399Z,-0.85
2018-03-03T00:11:10.032Z,-0.86
2018-03-03T00:13:37.557Z,-1.02
2018-03-03T00:16:05.062Z,-0.82
2018-03-03T00:18:32.621Z,-0.72
2018-03-03T00:21:00.180Z,-0.63
2018-03-03T00:23:27.704Z,-0.55
2018-03-03T00:25:55.210Z,-0.76
2018-03-03T00:28:22.717Z,-0.82
2018-03-03T00:30:50.207Z,-0.84
2018-03-03T00:33:17.715Z,-0.70
2018-03-03T00:35:45.216Z,-0.62
2018-03-03T00:38:12.747Z,-0.55
2018-03-03T00:40:40.240Z,-0.70
2018-03-03T00:43:07.814Z,-0.66
2018-03-03T00:45:35.447Z,-0.67
2018-03-03T00:48:02.964Z,-0.72
2018-03-03T00:50:30.463Z,-0.86
2018-03-03T00:52:57.963Z,-0.86
2018-03-03T00:55:25.498Z,-0.80
2018-03-03T00:57:53.017Z,-0.67
2018-03-03T01:00:20.538Z,-0.74
2018-03-03T01:02:48.055Z,-0.84
2018-03-03T01:05:15.571Z,-0.77
2018-03-03T01:07:43.108Z,-0.71
2018-03-03T01:10:10.637Z,-0.69
2018-03-03T01:12:38.143Z,-0.69
2018-03-03T01:15:05.679Z,-0.62
2018-03-03T01:17:33.345Z,-0.59
2018-03-03T01:20:00.898Z,-0.53
2018-03-03T01:22:28.400Z,-0.54
2018-03-03T01:24:56.086Z,-0.51
2018-03-03T01:27:23.580Z,-0.50
2018-03-03T01:29:51.095Z,-0.51
2018-03-03T01:32:18.623Z,-0.51
2018-03-03T01:34:46.155Z,-0.45
2018-03-03T01:37:13.651Z,-0.37
2018-03-03T01:39:41.174Z,-0.24
2018-03-03T01:42:08.667Z,-0.20
2018-03-03T01:44:36.215Z,-0.18
2018-03-03T01:47:03.727Z,-0.27
2018-03-03T01:49:31.308Z,-0.12
2018-03-03T01:51:58.867Z,-0.21
2018-03-03T01:54:26.395Z,-0.09
2018-03-03T01:56:53.887Z,-0.14
2018-03-03T01:59:21.437Z,-0.17
2018-03-03T02:01:48.948Z,-0.27
2018-03-03T02:04:16.564Z,-0.18
2018-03-03T02:06:44.063Z,-0.16
2018-03-03T02:09:11.581Z,-0.19
2018-03-03T02:11:39.108Z,-0.25
2018-03-03T02:14:06.712Z,-0.32
2018-03-03T02:16:34.388Z,-0.22
2018-03-03T02:19:01.886Z,-0.22
2018-03-03T02:21:29.476Z,-0.35
2018-03-03T02:23:56.972Z,-0.34
2018-03-03T02:26:24.610Z,-0.45
2018-03-03T02:28:52.167Z,-0.55
2018-03-03T02:31:19.689Z,-0.46
2018-03-03T02:33:47.195Z,-0.48
2018-03-03T02:36:14.725Z,-0.61
2018-03-03T02:38:42.277Z,-0.60
2018-03-03T02:41:09.799Z,-0.69
2018-03-03T02:43:37.332Z,-0.67
2018-03-03T02:46:04.884Z,-0.78
2018-03-03T02:48:32.388Z,-0.62
2018-03-03T02:50:59.923Z,-0.80
2018-03-03T02:53:27.451Z,-0.92
2018-03-03T02:55:54.971Z,-0.99
2018-03-03T02:58:22.473Z,-1.10
2018-03-03T03:00:49.997Z,-0.80
2018-03-03T03:03:17.521Z,-0.62
2018-03-03T03:05:45.016Z,-0.52
2018-03-03T03:08:12.599Z,-0.36
2018-03-03T03:10:40.167Z,-0.26
2018-03-03T03:13:07.690Z,-0.25
2018-03-03T03:15:35.285Z,-0.43
2018-03-03T03:18:02.866Z,-0.68
2018-03-03T03:20:30.381Z,-0.94
2018-03-03T03:22:57.900Z,-1.05
2018-03-03T03:25:25.651Z,-1.14
2018-03-03T03:27:53.191Z,-1.19
2018-03-03T03:30:20.688Z,-1.26
2018-03-03T03:32:48.223Z,-1.36
2018-03-03T03:35:15.752Z,-1.45
2018-03-03T03:37:43.267Z,-1.51
2018-03-03T03:40:10.780Z,-1.59
2018-03-03T03:42:38.335Z,-1.58
2018-03-03T03:45:05.828Z,-1.58
2018-03-03T03:47:33.455Z,-1.67
2018-03-03T03:50:01.053Z,-1.69
2018-03-03T03:52:28.805Z,-1.74
2018-03-03T03:54:56.347Z,-1.85
2018-03-03T03:57:23.906Z,-1.90
2018-03-03T03:59:51.399Z,-1.99
2018-03-03T04:02:19.027Z,-2.06
2018-03-03T04:04:46.584Z,-2.09
2018-03-03T04:07:14.146Z,-2.07
2018-03-03T04:09:41.644Z,-2.07
2018-03-03T04:12:09.145Z,-1.86
2018-03-03T04:14:36.668Z,-1.90
2018-03-03T04:17:04.180Z,-2.03
2018-03-03T04:19:31.731Z,-2.06
2018-03-03T04:21:59.235Z,-2.14
2018-03-03T04:24:26.762Z,-2.18
2018-03-03T04:26:54.265Z,-2.23
2018-03-03T04:29:21.788Z,-2.30
2018-03-03T04:31:49.325Z,-2.35
2018-03-03T04:34:16.844Z,-2.38
2018-03-03T04:36:44.356Z,-2.47
2018-03-03T04:39:11.910Z,-2.56
2018-03-03T04:41:39.398Z,-2.56
2018-03-03T04:44:06.916Z,-2.67
2018-03-03T04:46:34.459Z,-2.79
2018-03-03T04:49:01.981Z,-2.83
2018-03-03T04:51:29.487Z,-2.78
2018-03-03T04:53:57.004Z,-2.67
2018-03-03T04:56:24.499Z,-2.56
2018-03-03T04:58:56.040Z,-2.56
2018-03-03T05:01:24.106Z,-2.53
2018-03-03T05:03:53.568Z,-2.41
2018-03-03T05:06:21.087Z,-2.36
2018-03-03T05:08:48.603Z,-2.34
2018-03-03T05:11:16.111Z,-2.29
2018-03-03T05:13:43.627Z,-2.32
2018-03-03T05:16:27.083Z,-2.33
2018-03-03T05:19:00.152Z,-2.44
2018-03-03T05:21:33.312Z,-2.46
2018-03-03T05:24:06.496Z,-2.47
2018-03-03T05:26:39.695Z,-2.54
2018-03-03T05:29:13.004Z,-2.56
2018-03-03T05:31:46.199Z,-2.54
2018-03-03T05:34:19.425Z,-2.55
2018-03-03T05:39:58.620Z,-2.48
2018-03-03T05:45:47.764Z,-2.49
2018-03-03T05:51:34.998Z,-2.42
2018-03-03T05:54:09.128Z,-2.37
2018-03-03T05:56:51.359Z,-2.32
2018-03-03T05:59:24.610Z,-2.20
2018-03-03T06:05:00.251Z,-2.11
2018-03-03T06:07:31.699Z,-2.11
2018-03-03T06:09:59.223Z,-2.13
2018-03-03T06:12:26.739Z,-2.02
2018-03-03T06:14:54.247Z,-1.98
2018-03-03T06:17:21.765Z,-1.94
2018-03-03T06:19:49.262Z,-1.92
2018-03-03T06:22:16.789Z,-1.90
2018-03-03T06:24:44.303Z,-1.85
2018-03-03T06:27:11.840Z,-1.83
2018-03-03T06:29:39.336Z,-1.81
2018-03-03T06:32:06.853Z,-1.75
2018-03-03T06:34:34.343Z,-1.70
2018-03-03T06:37:01.866Z,-1.61
2018-03-03T06:39:29.363Z,-1.55
2018-03-03T06:41:56.897Z,-1.54
2018-03-03T06:44:24.454Z,-1.52
2018-03-03T06:46:52.003Z,-1.38
2018-03-03T06:49:19.494Z,-1.31
2018-03-03T06:51:47.019Z,-1.21
2018-03-03T06:54:14.608Z,-1.17
2018-03-03T06:56:42.136Z,-1.12
2018-03-03T06:59:09.652Z,-1.10
2018-03-03T07:01:37.204Z,-1.01
2018-03-03T07:04:05.770Z,-1.12
2018-03-03T07:06:33.294Z,-1.07
2018-03-03T07:09:00.867Z,-1.03
2018-03-03T07:11:28.383Z,-0.91
2018-03-03T07:13:55.876Z,-0.73
2018-03-03T07:16:23.403Z,-0.64
2018-03-03T07:18:50.902Z,-0.53
2018-03-03T07:21:18.459Z,-0.38
2018-03-03T07:23:45.950Z,-0.30
2018-03-03T07:26:13.477Z,-0.28
2018-03-03T07:28:41.026Z,-0.43
2018-03-03T07:31:08.611Z,-0.30
2018-03-03T07:33:36.164Z,-0.17
2018-03-03T07:36:03.673Z,-0.09
2018-03-03T07:38:31.191Z,0.09
2018-03-03T07:40:58.703Z,0.24
2018-03-03T07:43:26.216Z,0.34
2018-03-03T07:45:53.715Z,0.61
2018-03-03T07:48:21.232Z,0.76
2018-03-03T07:50:48.731Z,0.79
2018-03-03T07:53:16.246Z,1.22
2018-03-03T07:55:43.759Z,1.53
2018-03-03T07:58:11.276Z,1.87
2018-03-03T08:00:38.800Z,2.23
2018-03-03T08:03:06.347Z,2.23
2018-03-03T08:05:33.833Z,2.30
2018-03-03T08:08:01.350Z,2.37
2018-03-03T08:10:28.863Z,2.79
2018-03-03T08:12:56.403Z,2.86
2018-03-03T08:15:23.928Z,3.08
2018-03-03T08:17:51.449Z,3.14
2018-03-03T08:20:18.956Z,2.56
2018-03-03T08:22:46.491Z,2.65
2018-03-03T08:25:13.987Z,2.67
2018-03-03T08:27:41.547Z,3.37
2018-03-03T08:30:09.070Z,3.13
2018-03-03T08:32:36.620Z,3.37
2018-03-03T08:35:04.116Z,3.49
2018-03-03T08:37:31.648Z,3.57
2018-03-03T08:39:59.168Z,3.60
2018-03-03T08:42:26.748Z,3.68
2018-03-03T08:44:54.415Z,3.71
2018-03-03T08:47:22.021Z,3.65
2018-03-03T08:49:49.601Z,3.28
2018-03-03T08:52:17.097Z,3.46
2018-03-03T08:54:44.616Z,3.79
2018-03-03T08:57:12.120Z,3.86
2018-03-03T08:59:39.691Z,3.79
2018-03-03T09:02:07.208Z,4.03
2018-03-03T09:04:34.791Z,3.85
2018-03-03T09:07:02.307Z,4.05
2018-03-03T09:09:29.827Z,4.37
2018-03-03T09:11:57.329Z,4.78
2018-03-03T09:14:24.843Z,5.46
2018-03-03T09:16:52.368Z,5.90
2018-03-03T09:19:19.960Z,6.28
2018-03-03T09:21:47.464Z,6.37
2018-03-03T09:24:14.979Z,6.80
2018-03-03T09:26:42.576Z,6.96
2018-03-03T09:29:10.092Z,7.06
2018-03-03T09:31:37.692Z,7.18
2018-03-03T09:34:05.228Z,7.16
2018-03-03T09:36:32.721Z,7.13
2018-03-03T09:39:00.275Z,7.13
2018-03-03T09:41:27.763Z,7.61
2018-03-03T09:43:55.284Z,6.83
2018-03-03T09:46:22.795Z,7.24
2018-03-03T09:48:50.290Z,7.48
2018-03-03T09:51:17.828Z,7.36
2018-03-03T09:53:45.316Z,7.06
2018-03-03T09:56:12.879Z,7.09
2018-03-03T09:58:40.432Z,6.99
2018-03-03T10:01:07.980Z,6.69
2018-03-03T10:03:35.552Z,6.83
2018-03-03T10:06:03.560Z,6.81
2018-03-03T10:08:31.155Z,6.97
2018-03-03T10:10:58.784Z,7.19
2018-03-03T10:13:26.341Z,6.95
2018-03-03T10:15:54.012Z,7.14
2018-03-03T10:18:21.507Z,6.80
2018-03-03T10:20:49.097Z,6.63
2018-03-03T10:23:16.612Z,6.55
2018-03-03T10:25:44.145Z,6.39
2018-03-03T10:28:11.678Z,6.46
2018-03-03T10:30:39.228Z,6.17
2018-03-03T10:33:06.796Z,5.74
2018-03-03T10:35:34.329Z,5.46
2018-03-03T10:38:01.836Z,4.90
2018-03-03T10:40:29.360Z,4.98
2018-03-03T10:42:56.843Z,4.91
2018-03-03T10:45:24.398Z,4.88
2018-03-03T10:47:52.060Z,4.73
2018-03-03T10:50:19.573Z,4.68
2018-03-03T10:52:47.089Z,4.19
2018-03-03T10:55:14.604Z,4.34
2018-03-03T10:57:42.128Z,4.67
2018-03-03T11:00:09.617Z,4.57
2018-03-03T11:02:37.136Z,4.91
2018-03-03T11:05:04.636Z,5.15
2018-03-03T11:07:32.168Z,5.13
2018-03-03T11:09:59.671Z,5.15
2018-03-03T11:12:27.332Z,5.14
2018-03-03T11:14:54.828Z,4.54
2018-03-03T11:17:22.379Z,4.49
2018-03-03T11:19:49.911Z,4.17
2018-03-03T11:22:17.461Z,3.76
2018-03-03T11:24:45.031Z,3.46
2018-03-03T11:27:12.544Z,3.57
2018-03-03T11:29:40.169Z,3.52
2018-03-03T11:32:07.684Z,3.81
2018-03-03T11:34:35.364Z,3.53
2018-03-03T11:37:02.946Z,3.68
2018-03-03T11:39:30.441Z,3.81
2018-03-03T11:41:57.953Z,4.02
2018-03-03T11:44:25.509Z,4.24
2018-03-03T11:46:53.040Z,4.30
2018-03-03T11:49:20.653Z,4.37
2018-03-03T11:51:48.180Z,4.40
2018-03-03T11:54:15.664Z,4.63
2018-03-03T11:56:43.156Z,4.86
2018-03-03T11:59:10.716Z,4.88
2018-03-03T12:01:38.231Z,4.75
2018-03-03T12:04:06.791Z,5.05
2018-03-03T12:06:34.389Z,5.52
2018-03-03T12:09:01.928Z,5.35
2018-03-03T12:11:29.424Z,5.30
2018-03-03T12:13:57.055Z,5.29
2018-03-03T12:16:24.716Z,5.42
2018-03-03T12:18:52.269Z,5.41
2018-03-03T12:21:19.776Z,5.56
2018-03-03T12:23:47.292Z,5.37
2018-03-03T12:26:14.789Z,5.34
2018-03-03T12:28:42.318Z,5.21
2018-03-03T12:31:09.808Z,5.12
2018-03-03T12:33:37.320Z,5.05
2018-03-03T12:36:04.885Z,4.93
2018-03-03T12:38:32.448Z,4.69
2018-03-03T12:40:59.948Z,4.19
2018-03-03T12:43:27.470Z,4.26
2018-03-03T12:45:55.135Z,4.42
2018-03-03T12:48:22.686Z,4.48
2018-03-03T12:50:50.208Z,4.50
2018-03-03T12:53:17.718Z,4.61
2018-03-03T12:55:45.275Z,4.88
2018-03-03T12:58:12.984Z,4.81
2018-03-03T13:00:42.936Z,4.86
2018-03-03T13:03:10.491Z,5.08
2018-03-03T13:05:38.046Z,4.99
2018-03-03T13:08:05.596Z,4.66
2018-03-03T13:10:33.086Z,4.58
2018-03-03T13:13:00.599Z,4.44
2018-03-03T13:15:28.084Z,4.20
2018-03-03T13:17:55.604Z,4.08
2018-03-03T13:20:23.118Z,4.11
2018-03-03T13:22:50.767Z,4.38
2018-03-03T13:25:18.263Z,4.65
2018-03-03T13:27:45.784Z,4.99
2018-03-03T13:30:13.348Z,4.76
2018-03-03T13:32:40.844Z,4.94
2018-03-03T13:35:08.369Z,4.89
2018-03-03T13:37:35.859Z,4.75
2018-03-03T13:40:03.389Z,4.86
2018-03-03T13:42:31.651Z,4.85
2018-03-03T13:44:59.221Z,5.04
2018-03-03T13:47:26.720Z,4.87
2018-03-03T13:49:54.235Z,4.81
2018-03-03T13:52:21.740Z,4.77
2018-03-03T13:54:49.267Z,4.62
2018-03-03T13:57:16.891Z,4.52
2018-03-03T13:59:44.466Z,4.34
2018-03-03T14:02:11.999Z,4.32
2018-03-03T14:04:39.519Z,4.21
2018-03-03T14:07:07.066Z,4.14
2018-03-03T14:09:34.597Z,3.93
2018-03-03T14:12:02.083Z,3.94
2018-03-03T14:14:30.303Z,3.86
2018-03-03T14:16:57.797Z,4.00
2018-03-03T14:19:25.377Z,4.07
2018-03-03T14:21:52.834Z,4.14
2018-03-03T14:24:21.404Z,4.10
2018-03-03T14:26:48.891Z,4.26
2018-03-03T14:29:16.471Z,4.19
2018-03-03T14:31:44.077Z,4.24
2018-03-03T14:34:11.708Z,4.01
2018-03-03T14:36:39.314Z,3.97
2018-03-03T14:39:06.839Z,3.83
2018-03-03T14:41:34.545Z,3.84
2018-03-03T14:44:02.060Z,3.97
2018-03-03T14:46:30.559Z,3.93
2018-03-03T14:48:58.083Z,3.87
2018-03-03T14:51:25.586Z,3.81
2018-03-03T14:53:53.094Z,3.77
2018-03-03T14:56:20.703Z,3.72
2018-03-03T14:58:48.348Z,3.66
2018-03-03T15:01:15.848Z,3.55
2018-03-03T15:03:43.346Z,3.52
2018-03-03T15:06:10.868Z,3.61
2018-03-03T15:08:39.339Z,3.62
2018-03-03T15:11:06.859Z,3.55
2018-03-03T15:13:34.461Z,3.57
2018-03-03T15:16:02.003Z,3.59
2018-03-03T15:18:29.560Z,3.43
2018-03-03T15:20:57.079Z,3.41
2018-03-03T15:23:24.684Z,3.49
2018-03-03T15:25:52.195Z,3.48
2018-03-03T15:28:20.084Z,3.49
2018-03-03T15:30:47.672Z,3.44
2018-03-03T15:33:15.170Z,3.46
2018-03-03T15:35:42.689Z,3.54
2018-03-03T15:38:10.184Z,3.65
2018-03-03T15:40:37.695Z,3.72
2018-03-03T15:43:05.199Z,3.75
2018-03-03T15:45:32.737Z,3.77
2018-03-03T15:48:00.224Z,3.75
2018-03-03T15:50:27.732Z,3.74
2018-03-03T15:52:55.253Z,3.77
2018-03-03T15:55:22.780Z,3.75
2018-03-03T15:57:50.307Z,3.77
2018-03-03T16:00:17.872Z,3.78
2018-03-03T16:02:45.404Z,3.77
2018-03-03T16:05:12.926Z,3.70
2018-03-03T16:07:40.436Z,3.72
2018-03-03T16:10:07.948Z,3.71
2018-03-03T16:12:35.471Z,3.68
2018-03-03T16:15:02.984Z,3.65
2018-03-03T16:17:30.791Z,3.64
2018-03-03T16:19:58.310Z,3.62
2018-03-03T16:22:25.867Z,3.59
2018-03-03T16:24:53.412Z,3.56
2018-03-03T16:27:21.081Z,3.51
2018-03-03T16:29:48.577Z,3.53
2018-03-03T16:32:16.119Z,3.53
2018-03-03T16:34:43.728Z,3.48
2018-03-03T16:37:11.242Z,3.47
2018-03-03T16:39:38.731Z,3.44
2018-03-03T16:42:06.276Z,3.41
2018-03-03T16:44:33.851Z,3.43
2018-03-03T16:47:01.408Z,3.44
2018-03-03T16:49:29.004Z,3.41
2018-03-03T16:51:56.840Z,3.44
2018-03-03T16:54:24.331Z,3.49
2018-03-03T16:56:52.760Z,3.52
2018-03-03T16:59:20.276Z,3.52
2018-03-03T17:01:47.788Z,3.56
2018-03-03T17:04:15.348Z,3.68
2018-03-03T17:06:42.881Z,3.77
2018-03-03T17:09:10.377Z,3.96
2018-03-03T17:11:37.892Z,3.93
2018-03-03T17:14:05.392Z,3.89
2018-03-03T17:16:32.903Z,3.90
2018-03-03T17:19:00.401Z,3.87
2018-03-03T17:21:27.916Z,3.81
2018-03-03T17:23:55.408Z,3.76
2018-03-03T17:26:22.927Z,3.72
2018-03-03T17:28:50.427Z,3.70
2018-03-03T17:31:17.917Z,3.56
2018-03-03T17:33:45.452Z,3.45
2018-03-03T17:36:12.944Z,3.36
2018-03-03T17:38:40.782Z,3.38
2018-03-03T17:41:08.386Z,3.47
2018-03-03T17:43:35.888Z,3.39
2018-03-03T17:46:03.392Z,3.38
2018-03-03T17:48:30.908Z,3.45
2018-03-03T17:50:58.500Z,3.52
2018-03-03T17:53:26.151Z,3.63
2018-03-03T17:55:53.656Z,3.64
2018-03-03T17:58:21.323Z,3.63
2018-03-03T18:00:48.812Z,3.74
2018-03-03T18:03:16.332Z,3.75
2018-03-03T18:05:43.836Z,3.51
2018-03-03T18:08:11.355Z,3.46
2018-03-03T18:10:38.854Z,3.37
2018-03-03T18:13:07.280Z,3.28
2018-03-03T18:15:34.773Z,3.20
2018-03-03T18:18:02.283Z,3.10
2018-03-03T18:20:29.804Z,3.05
2018-03-03T18:22:57.315Z,2.92
2018-03-03T18:25:24.811Z,2.97
2018-03-03T18:27:52.331Z,2.95
2018-03-03T18:30:19.827Z,2.87
2018-03-03T18:32:47.355Z,2.79
2018-03-03T18:35:14.881Z,2.78
2018-03-03T18:37:42.384Z,2.79
2018-03-03T18:40:09.901Z,2.92
2018-03-03T18:42:37.431Z,3.00
2018-03-03T18:45:04.944Z,2.98
2018-03-03T18:47:32.436Z,2.88
2018-03-03T18:49:59.992Z,2.72
2018-03-03T18:52:27.567Z,2.56
2018-03-03T18:54:55.079Z,2.42
2018-03-03T18:57:22.571Z,2.26
2018-03-03T18:59:50.088Z,2.14
2018-03-03T19:02:17.726Z,1.98
2018-03-03T19:04:45.260Z,1.90
2018-03-03T19:07:12.769Z,2.00
2018-03-03T19:09:40.337Z,1.95
2018-03-03T19:12:07.824Z,1.91
2018-03-03T19:14:35.348Z,1.87
2018-03-03T19:17:02.849Z,1.97
2018-03-03T19:19:30.360Z,2.00
2018-03-03T19:21:57.884Z,2.03
2018-03-03T19:24:25.425Z,2.05
2018-03-03T19:26:52.945Z,2.09
2018-03-03T19:29:20.472Z,2.14
2018-03-03T19:31:48.020Z,2.25
2018-03-03T19:34:15.581Z,2.32
2018-03-03T19:36:43.136Z,2.40
2018-03-03T19:39:10.721Z,2.47
2018-03-03T19:41:38.232Z,2.48
2018-03-03T19:44:05.834Z,2.45
2018-03-03T19:46:33.320Z,2.42
2018-03-03T19:49:00.904Z,2.32
2018-03-03T19:51:28.426Z,2.20
2018-03-03T19:53:55.926Z,2.09
2018-03-03T19:56:23.445Z,2.11
2018-03-03T19:58:50.930Z,2.14
2018-03-03T20:01:18.453Z,2.26
2018-03-03T20:03:45.980Z,2.32
2018-03-03T20:06:13.776Z,2.51
2018-03-03T20:08:41.268Z,2.68
2018-03-03T20:11:08.800Z,2.83
2018-03-03T20:13:36.297Z,2.98
2018-03-03T20:16:03.811Z,3.06
2018-03-03T20:18:31.375Z,3.08
2018-03-03T20:20:58.888Z,3.05
2018-03-03T20:23:26.380Z,3.07
2018-03-03T20:25:53.910Z,3.23
2018-03-03T20:28:21.508Z,3.28
2018-03-03T20:30:49.254Z,3.36
2018-03-03T20:33:16.744Z,3.31
2018-03-03T20:35:44.280Z,3.23
2018-03-03T20:38:11.860Z,3.19
2018-03-03T20:40:39.380Z,3.10
2018-03-03T20:43:06.876Z,3.02
2018-03-03T20:45:34.368Z,2.94
2018-03-03T20:48:01.890Z,2.90
2018-03-03T20:50:29.579Z,2.86
2018-03-03T20:52:57.151Z,2.84
2018-03-03T20:55:25.667Z,2.84
2018-03-03T20:57:53.200Z,2.88
2018-03-03T21:00:20.736Z,2.87
2018-03-03T21:02:48.322Z,2.86
2018-03-03T21:05:15.825Z,2.88
2018-03-03T21:07:43.387Z,3.13
2018-03-03T21:10:10.893Z,3.12
2018-03-03T21:12:50.844Z,3.09
2018-03-03T21:15:18.392Z,3.04
2018-03-03T21:17:46.019Z,3.03
2018-03-03T21:20:13.579Z,3.01
2018-03-03T21:22:41.136Z,3.11
2018-03-03T21:25:08.698Z,3.03
2018-03-03T21:27:36.278Z,3.01
2018-03-03T21:30:03.796Z,3.03
2018-03-03T21:32:32.095Z,3.02
2018-03-03T21:34:59.622Z,2.93
2018-03-03T21:37:27.220Z,2.92
2018-03-03T21:39:54.722Z,2.95
2018-03-03T21:42:22.328Z,3.00
2018-03-03T21:44:49.831Z,2.98
2018-03-03T21:47:17.352Z,2.98
2018-03-03T21:49:44.907Z,2.95
2018-03-03T21:52:12.423Z,2.90
2018-03-03T21:54:39.929Z,2.85
2018-03-03T21:57:07.424Z,2.80
2018-03-03T21:59:34.936Z,2.79
2018-03-03T22:02:02.507Z,2.83
2018-03-03T22:04:30.024Z,2.85
2018-03-03T22:06:57.520Z,2.84
2018-03-03T22:09:25.040Z,2.81
2018-03-03T22:11:52.527Z,2.80
2018-03-03T22:14:20.048Z,2.78
2018-03-03T22:16:47.539Z,2.81
2018-03-03T22:19:15.059Z,2.79
2018-03-03T22:21:42.566Z,2.78
2018-03-03T22:24:10.102Z,2.73
2018-03-03T22:26:37.601Z,2.70
2018-03-03T22:29:05.120Z,2.63
2018-03-03T22:31:32.609Z,2.57
2018-03-03T22:34:00.140Z,2.51
2018-03-03T22:36:27.704Z,2.50
2018-03-03T22:38:55.215Z,2.52
2018-03-03T22:41:22.757Z,2.57
2018-03-03T22:43:50.279Z,2.52
2018-03-03T22:46:17.830Z,2.49
2018-03-03T22:48:45.344Z,2.45
2018-03-03T22:51:12.971Z,2.45
2018-03-03T22:53:40.484Z,2.51
2018-03-03T22:56:08.003Z,2.52
2018-03-03T22:58:35.540Z,2.43
2018-03-03T23:01:03.052Z,2.34
2018-03-03T23:03:30.578Z,2.31
2018-03-03T23:05:58.190Z,2.22
2018-03-03T23:08:25.639Z,2.20
2018-03-03T23:10:53.164Z,2.12
2018-03-03T23:13:20.651Z,2.07
2018-03-03T23:15:48.263Z,1.97
2018-03-03T23:18:15.840Z,1.87
2018-03-03T23:20:43.361Z,1.80
2018-03-03T23:23:10.860Z,1.62
2018-03-03T23:25:38.409Z,1.50
2018-03-03T23:28:05.976Z,1.29
2018-03-03T23:30:33.522Z,1.22
2018-03-03T23:33:01.089Z,1.14
2018-03-03T23:35:28.628Z,1.13
2018-03-03T23:37:56.116Z,1.13
2018-03-03T23:40:23.650Z,1.02
2018-03-03T23:42:51.164Z,0.94
2018-03-03T23:45:18.687Z,1.00
2018-03-03T23:47:46.185Z,1.02
2018-03-03T23:50:13.723Z,1.01
2018-03-03T23:52:41.223Z,1.04
2018-03-03T23:55:08.772Z,1.30
2018-03-03T23:57:36.275Z,1.35
